sensor_id;sensor_type;location;lat;lon;timestamp;temperature;humidity
11540;DHT22;5826;54.756;9.192;2024-03-08T00:00:05;4.50;99.90
11540;DHT22;5826;54.756;9.192;2024-03-08T00:02:36;4.50;99.90
11540;DHT22;5826;54.756;9.192;2024-03-08T00:05:03;5.00;99.90
11540;DHT22;5826;54.756;9.192;2024-03-08T00:07:29;4.40;99.90
11540;DHT22;5826;54.756;9.192;2024-03-08T00:09:54;4.40;99.90
11540;DHT22;5826;54.756;9.192;2024-03-08T00:12:19;4.30;99.90
11540;DHT22;5826;54.756;9.192;2024-03-08T00:14:45;4.30;99.90
11540;DHT22;5826;54.756;9.192;2024-03-08T00:17:11;4.20;99.90
11540;DHT22;5826;54.756;9.192;2024-03-08T00:19:36;4.20;99.90
11540;DHT22;5826;54.756;9.192;2024-03-08T00:22:02;4.20;99.90
11540;DHT22;5826;54.756;9.192;2024-03-08T00:24:27;4.20;99.90
11540;DHT22;5826;54.756;9.192;2024-03-08T00:26:54;4.10;99.90
11540;DHT22;5826;54.756;9.192;2024-03-08T00:29:20;4.10;99.90
11540;DHT22;5826;54.756;9.192;2024-03-08T00:31:46;4.10;99.90
11540;DHT22;5826;54.756;9.192;2024-03-08T00:34:11;4.10;99.90
11540;DHT22;5826;54.756;9.192;2024-03-08T00:36:37;4.00;99.90
11540;DHT22;5826;54.756;9.192;2024-03-08T00:39:03;4.00;99.90
11540;DHT22;5826;54.756;9.192;2024-03-08T00:41:32;4.40;99.90
11540;DHT22;5826;54.756;9.192;2024-03-08T00:43:57;4.00;99.90
11540;DHT22;5826;54.756;9.192;2024-03-08T00:46:23;4.00;99.90
11540;DHT22;5826;54.756;9.192;2024-03-08T00:48:48;4.00;99.90
11540;DHT22;5826;54.756;9.192;2024-03-08T00:51:14;3.90;99.90
11540;DHT22;5826;54.756;9.192;2024-03-08T00:53:41;3.90;99.90
11540;DHT22;5826;54.756;9.192;2024-03-08T00:56:08;3.90;99.90
11540;DHT22;5826;54.756;9.192;2024-03-08T00:58:36;4.50;99.90
11540;DHT22;5826;54.756;9.192;2024-03-08T01:01:03;3.90;99.90
11540;DHT22;5826;54.756;9.192;2024-03-08T01:03:28;3.80;99.90
11540;DHT22;5826;54.756;9.192;2024-03-08T01:05:57;3.80;99.90
11540;DHT22;5826;54.756;9.192;2024-03-08T01:08:22;4.20;99.90
11540;DHT22;5826;54.756;9.192;2024-03-08T01:10:48;3.80;99.90
11540;DHT22;5826;54.756;9.192;2024-03-08T01:13:16;3.80;99.90
11540;DHT22;5826;54.756;9.192;2024-03-08T01:15:41;4.10;99.90
11540;DHT22;5826;54.756;9.192;2024-03-08T01:18:07;3.70;99.90
11540;DHT22;5826;54.756;9.192;2024-03-08T01:20:32;3.70;99.90
11540;DHT22;5826;54.756;9.192;2024-03-08T01:22:58;3.70;99.90
11540;DHT22;5826;54.756;9.192;2024-03-08T01:25:23;4.00;99.90
11540;DHT22;5826;54.756;9.192;2024-03-08T01:27:49;3.70;99.90
11540;DHT22;5826;54.756;9.192;2024-03-08T01:30:14;3.70;99.90
11540;DHT22;5826;54.756;9.192;2024-03-08T01:32:43;3.70;99.90
11540;DHT22;5826;54.756;9.192;2024-03-08T01:35:09;3.70;99.90
11540;DHT22;5826;54.756;9.192;2024-03-08T01:37:35;3.60;99.90
11540;DHT22;5826;54.756;9.192;2024-03-08T01:40:00;3.60;99.90
11540;DHT22;5826;54.756;9.192;2024-03-08T01:42:26;3.60;99.90
11540;DHT22;5826;54.756;9.192;2024-03-08T01:44:51;3.60;99.90
11540;DHT22;5826;54.756;9.192;2024-03-08T01:47:17;3.70;99.90
11540;DHT22;5826;54.756;9.192;2024-03-08T01:49:43;3.50;99.90
11540;DHT22;5826;54.756;9.192;2024-03-08T01:52:09;3.50;99.90
11540;DHT22;5826;54.756;9.192;2024-03-08T01:54:36;4.10;99.90
11540;DHT22;5826;54.756;9.192;2024-03-08T01:57:02;3.50;99.90
11540;DHT22;5826;54.756;9.192;2024-03-08T01:59:28;3.50;99.90
11540;DHT22;5826;54.756;9.192;2024-03-08T02:02:00;3.80;99.90
11540;DHT22;5826;54.756;9.192;2024-03-08T02:04:27;3.50;99.90
11540;DHT22;5826;54.756;9.192;2024-03-08T02:06:52;3.40;99.90
11540;DHT22;5826;54.756;9.192;2024-03-08T02:09:18;3.40;99.90
11540;DHT22;5826;54.756;9.192;2024-03-08T02:11:43;3.40;99.90
11540;DHT22;5826;54.756;9.192;2024-03-08T02:14:09;3.40;99.90
11540;DHT22;5826;54.756;9.192;2024-03-08T02:16:36;4.00;99.90
11540;DHT22;5826;54.756;9.192;2024-03-08T02:19:03;3.40;99.90
11540;DHT22;5826;54.756;9.192;2024-03-08T02:21:28;3.70;99.90
11540;DHT22;5826;54.756;9.192;2024-03-08T02:23:55;3.30;99.90
11540;DHT22;5826;54.756;9.192;2024-03-08T02:26:20;3.30;99.90
11540;DHT22;5826;54.756;9.192;2024-03-08T02:28:46;3.30;99.90
11540;DHT22;5826;54.756;9.192;2024-03-08T02:31:12;3.30;99.90
11540;DHT22;5826;54.756;9.192;2024-03-08T02:33:37;3.90;99.90
11540;DHT22;5826;54.756;9.192;2024-03-08T02:36:03;3.30;99.90
11540;DHT22;5826;54.756;9.192;2024-03-08T02:38:29;3.30;99.90
11540;DHT22;5826;54.756;9.192;2024-03-08T02:40:55;3.30;99.90
11540;DHT22;5826;54.756;9.192;2024-03-08T02:43:21;3.20;99.90
11540;DHT22;5826;54.756;9.192;2024-03-08T02:45:50;3.30;99.90
11540;DHT22;5826;54.756;9.192;2024-03-08T02:48:16;3.30;99.90
11540;DHT22;5826;54.756;9.192;2024-03-08T02:50:41;3.30;99.90
11540;DHT22;5826;54.756;9.192;2024-03-08T02:53:11;3.30;99.90
11540;DHT22;5826;54.756;9.192;2024-03-08T02:55:37;3.40;99.90
11540;DHT22;5826;54.756;9.192;2024-03-08T02:58:03;3.90;99.90
11540;DHT22;5826;54.756;9.192;2024-03-08T03:00:29;4.50;99.90
11540;DHT22;5826;54.756;9.192;2024-03-08T03:02:56;3.30;99.90
11540;DHT22;5826;54.756;9.192;2024-03-08T03:05:23;3.30;99.90
11540;DHT22;5826;54.756;9.192;2024-03-08T03:07:49;3.30;99.90
11540;DHT22;5826;54.756;9.192;2024-03-08T03:10:17;3.30;99.90
11540;DHT22;5826;54.756;9.192;2024-03-08T03:12:43;3.30;99.90
11540;DHT22;5826;54.756;9.192;2024-03-08T03:15:10;3.30;99.90
11540;DHT22;5826;54.756;9.192;2024-03-08T03:17:35;3.40;99.90
11540;DHT22;5826;54.756;9.192;2024-03-08T03:20:01;3.30;99.90
11540;DHT22;5826;54.756;9.192;2024-03-08T03:22:34;3.30;99.90
11540;DHT22;5826;54.756;9.192;2024-03-08T03:25:00;3.40;99.90
11540;DHT22;5826;54.756;9.192;2024-03-08T03:27:25;3.30;99.90
11540;DHT22;5826;54.756;9.192;2024-03-08T03:29:51;3.30;99.90
11540;DHT22;5826;54.756;9.192;2024-03-08T03:32:17;3.90;99.90
11540;DHT22;5826;54.756;9.192;2024-03-08T03:34:44;3.30;99.90
11540;DHT22;5826;54.756;9.192;2024-03-08T03:37:10;3.30;99.90
11540;DHT22;5826;54.756;9.192;2024-03-08T03:39:39;3.60;99.90
11540;DHT22;5826;54.756;9.192;2024-03-08T03:42:17;3.30;99.90
11540;DHT22;5826;54.756;9.192;2024-03-08T03:44:47;3.30;99.90
11540;DHT22;5826;54.756;9.192;2024-03-08T03:47:13;3.30;99.90
11540;DHT22;5826;54.756;9.192;2024-03-08T03:49:40;3.30;99.90
11540;DHT22;5826;54.756;9.192;2024-03-08T03:52:05;3.30;99.90
11540;DHT22;5826;54.756;9.192;2024-03-08T03:54:31;4.00;99.90
11540;DHT22;5826;54.756;9.192;2024-03-08T03:56:57;3.30;99.90
11540;DHT22;5826;54.756;9.192;2024-03-08T03:59:22;3.30;99.90
11540;DHT22;5826;54.756;9.192;2024-03-08T04:01:48;3.30;99.90
11540;DHT22;5826;54.756;9.192;2024-03-08T04:04:15;3.30;99.90
11540;DHT22;5826;54.756;9.192;2024-03-08T04:06:40;3.30;99.90
11540;DHT22;5826;54.756;9.192;2024-03-08T04:09:06;3.30;99.90
11540;DHT22;5826;54.756;9.192;2024-03-08T04:11:32;3.30;99.90
11540;DHT22;5826;54.756;9.192;2024-03-08T04:13:57;3.40;99.90
11540;DHT22;5826;54.756;9.192;2024-03-08T04:16:23;3.30;99.90
11540;DHT22;5826;54.756;9.192;2024-03-08T04:18:49;3.30;99.90
11540;DHT22;5826;54.756;9.192;2024-03-08T04:21:15;3.30;99.90
11540;DHT22;5826;54.756;9.192;2024-03-08T04:23:40;3.30;99.90
11540;DHT22;5826;54.756;9.192;2024-03-08T04:26:06;3.30;99.90
11540;DHT22;5826;54.756;9.192;2024-03-08T04:28:32;3.30;99.90
11540;DHT22;5826;54.756;9.192;2024-03-08T04:30:58;3.30;99.90
11540;DHT22;5826;54.756;9.192;2024-03-08T04:33:26;3.50;99.90
11540;DHT22;5826;54.756;9.192;2024-03-08T04:35:51;3.40;99.90
11540;DHT22;5826;54.756;9.192;2024-03-08T04:38:17;3.40;99.90
11540;DHT22;5826;54.756;9.192;2024-03-08T04:40:42;3.40;99.90
11540;DHT22;5826;54.756;9.192;2024-03-08T04:43:08;3.40;99.90
11540;DHT22;5826;54.756;9.192;2024-03-08T04:45:36;3.40;99.90
11540;DHT22;5826;54.756;9.192;2024-03-08T04:48:01;3.40;99.90
11540;DHT22;5826;54.756;9.192;2024-03-08T04:50:27;3.40;99.90
11540;DHT22;5826;54.756;9.192;2024-03-08T04:52:55;3.40;99.90
11540;DHT22;5826;54.756;9.192;2024-03-08T04:55:21;3.40;99.90
11540;DHT22;5826;54.756;9.192;2024-03-08T04:57:47;3.40;99.90
11540;DHT22;5826;54.756;9.192;2024-03-08T05:00:14;3.40;99.90
11540;DHT22;5826;54.756;9.192;2024-03-08T05:02:40;3.40;99.90
11540;DHT22;5826;54.756;9.192;2024-03-08T05:05:07;3.40;99.90
11540;DHT22;5826;54.756;9.192;2024-03-08T05:07:32;3.50;99.90
11540;DHT22;5826;54.756;9.192;2024-03-08T05:09:58;3.50;99.90
11540;DHT22;5826;54.756;9.192;2024-03-08T05:12:24;3.50;99.90
11540;DHT22;5826;54.756;9.192;2024-03-08T05:14:50;3.50;99.90
11540;DHT22;5826;54.756;9.192;2024-03-08T05:17:16;3.60;99.90
11540;DHT22;5826;54.756;9.192;2024-03-08T05:19:42;3.50;99.90
11540;DHT22;5826;54.756;9.192;2024-03-08T05:22:07;3.50;99.90
11540;DHT22;5826;54.756;9.192;2024-03-08T05:24:33;3.50;99.90
11540;DHT22;5826;54.756;9.192;2024-03-08T05:26:59;3.50;99.90
11540;DHT22;5826;54.756;9.192;2024-03-08T05:29:25;3.50;99.90
11540;DHT22;5826;54.756;9.192;2024-03-08T05:31:52;3.60;99.90
11540;DHT22;5826;54.756;9.192;2024-03-08T05:34:18;3.60;99.90
11540;DHT22;5826;54.756;9.192;2024-03-08T05:36:45;3.60;99.90
11540;DHT22;5826;54.756;9.192;2024-03-08T05:39:12;3.60;99.90
11540;DHT22;5826;54.756;9.192;2024-03-08T05:41:41;3.60;99.90
11540;DHT22;5826;54.756;9.192;2024-03-08T05:44:08;4.30;99.90
11540;DHT22;5826;54.756;9.192;2024-03-08T05:46:34;3.70;99.90
11540;DHT22;5826;54.756;9.192;2024-03-08T05:49:01;3.70;99.90
11540;DHT22;5826;54.756;9.192;2024-03-08T05:51:33;4.10;99.90
11540;DHT22;5826;54.756;9.192;2024-03-08T05:54:06;3.60;99.90
11540;DHT22;5826;54.756;9.192;2024-03-08T05:56:32;3.70;99.90
11540;DHT22;5826;54.756;9.192;2024-03-08T05:58:58;3.60;99.90
11540;DHT22;5826;54.756;9.192;2024-03-08T06:01:27;3.60;99.90
11540;DHT22;5826;54.756;9.192;2024-03-08T06:03:53;3.60;99.90
11540;DHT22;5826;54.756;9.192;2024-03-08T06:06:21;4.30;99.90
11540;DHT22;5826;54.756;9.192;2024-03-08T06:08:47;3.60;99.90
11540;DHT22;5826;54.756;9.192;2024-03-08T06:11:14;3.60;99.90
11540;DHT22;5826;54.756;9.192;2024-03-08T06:13:40;3.70;99.90
11540;DHT22;5826;54.756;9.192;2024-03-08T06:16:06;3.60;99.90
11540;DHT22;5826;54.756;9.192;2024-03-08T06:18:34;4.00;99.90
11540;DHT22;5826;54.756;9.192;2024-03-08T06:21:02;3.60;99.90
11540;DHT22;5826;54.756;9.192;2024-03-08T06:23:28;3.70;99.90
11540;DHT22;5826;54.756;9.192;2024-03-08T06:25:54;3.70;99.90
11540;DHT22;5826;54.756;9.192;2024-03-08T06:28:19;3.70;99.90
11540;DHT22;5826;54.756;9.192;2024-03-08T06:30:45;3.70;99.90
11540;DHT22;5826;54.756;9.192;2024-03-08T06:33:11;3.70;99.90
11540;DHT22;5826;54.756;9.192;2024-03-08T06:35:36;3.70;99.90
11540;DHT22;5826;54.756;9.192;2024-03-08T06:38:04;4.40;99.90
11540;DHT22;5826;54.756;9.192;2024-03-08T06:40:29;3.80;99.90
11540;DHT22;5826;54.756;9.192;2024-03-08T06:42:55;3.80;99.90
11540;DHT22;5826;54.756;9.192;2024-03-08T06:45:20;3.80;99.90
11540;DHT22;5826;54.756;9.192;2024-03-08T06:47:47;3.80;99.90
11540;DHT22;5826;54.756;9.192;2024-03-08T06:50:12;3.80;99.90
11540;DHT22;5826;54.756;9.192;2024-03-08T06:52:39;3.80;99.90
11540;DHT22;5826;54.756;9.192;2024-03-08T06:55:05;3.80;99.90
11540;DHT22;5826;54.756;9.192;2024-03-08T06:57:31;3.90;99.90
11540;DHT22;5826;54.756;9.192;2024-03-08T06:59:57;3.90;99.90
11540;DHT22;5826;54.756;9.192;2024-03-08T07:02:23;3.90;99.90
11540;DHT22;5826;54.756;9.192;2024-03-08T07:04:50;4.00;99.90
11540;DHT22;5826;54.756;9.192;2024-03-08T07:07:15;4.00;99.90
11540;DHT22;5826;54.756;9.192;2024-03-08T07:09:44;4.10;99.90
11540;DHT22;5826;54.756;9.192;2024-03-08T07:12:10;4.10;99.90
11540;DHT22;5826;54.756;9.192;2024-03-08T07:14:36;4.10;99.90
11540;DHT22;5826;54.756;9.192;2024-03-08T07:17:06;4.10;99.90
11540;DHT22;5826;54.756;9.192;2024-03-08T07:19:34;4.10;99.90
11540;DHT22;5826;54.756;9.192;2024-03-08T07:22:00;4.10;99.90
11540;DHT22;5826;54.756;9.192;2024-03-08T07:24:25;4.70;99.90
11540;DHT22;5826;54.756;9.192;2024-03-08T07:27:16;4.20;99.90
11540;DHT22;5826;54.756;9.192;2024-03-08T07:29:41;4.20;99.90
11540;DHT22;5826;54.756;9.192;2024-03-08T07:32:07;4.20;99.90
11540;DHT22;5826;54.756;9.192;2024-03-08T07:34:49;4.20;99.90
11540;DHT22;5826;54.756;9.192;2024-03-08T07:37:18;4.20;99.90
11540;DHT22;5826;54.756;9.192;2024-03-08T07:39:45;4.30;99.90
11540;DHT22;5826;54.756;9.192;2024-03-08T07:42:11;4.30;99.90
11540;DHT22;5826;54.756;9.192;2024-03-08T07:44:37;4.30;99.90
11540;DHT22;5826;54.756;9.192;2024-03-08T07:47:03;4.30;99.90
11540;DHT22;5826;54.756;9.192;2024-03-08T07:49:29;4.30;99.90
11540;DHT22;5826;54.756;9.192;2024-03-08T07:51:55;4.40;99.90
11540;DHT22;5826;54.756;9.192;2024-03-08T07:54:21;4.40;99.90
11540;DHT22;5826;54.756;9.192;2024-03-08T07:56:46;4.50;99.90
11540;DHT22;5826;54.756;9.192;2024-03-08T07:59:12;4.60;99.90
11540;DHT22;5826;54.756;9.192;2024-03-08T08:01:38;4.60;99.90
11540;DHT22;5826;54.756;9.192;2024-03-08T08:04:03;4.70;99.90
11540;DHT22;5826;54.756;9.192;2024-03-08T08:06:29;4.70;99.90
11540;DHT22;5826;54.756;9.192;2024-03-08T08:08:58;4.80;99.90
11540;DHT22;5826;54.756;9.192;2024-03-08T08:11:26;4.80;99.90
11540;DHT22;5826;54.756;9.192;2024-03-08T08:13:53;4.90;99.90
11540;DHT22;5826;54.756;9.192;2024-03-08T08:16:20;5.00;99.90
11540;DHT22;5826;54.756;9.192;2024-03-08T08:18:45;5.00;99.90
11540;DHT22;5826;54.756;9.192;2024-03-08T08:21:11;5.00;99.90
11540;DHT22;5826;54.756;9.192;2024-03-08T08:23:37;5.10;99.90
11540;DHT22;5826;54.756;9.192;2024-03-08T08:26:03;5.10;99.90
11540;DHT22;5826;54.756;9.192;2024-03-08T08:28:28;5.20;99.90
11540;DHT22;5826;54.756;9.192;2024-03-08T08:30:54;5.20;99.90
11540;DHT22;5826;54.756;9.192;2024-03-08T08:33:20;5.30;99.90
11540;DHT22;5826;54.756;9.192;2024-03-08T08:35:45;5.20;99.90
11540;DHT22;5826;54.756;9.192;2024-03-08T08:38:14;5.30;99.90
11540;DHT22;5826;54.756;9.192;2024-03-08T08:40:40;5.30;99.90
11540;DHT22;5826;54.756;9.192;2024-03-08T08:43:06;5.30;99.90
11540;DHT22;5826;54.756;9.192;2024-03-08T08:45:32;5.30;99.90
11540;DHT22;5826;54.756;9.192;2024-03-08T08:47:58;5.30;99.90
11540;DHT22;5826;54.756;9.192;2024-03-08T08:50:25;5.40;99.90
11540;DHT22;5826;54.756;9.192;2024-03-08T08:52:52;5.70;99.90
11540;DHT22;5826;54.756;9.192;2024-03-08T08:55:18;5.40;99.90
11540;DHT22;5826;54.756;9.192;2024-03-08T08:57:46;5.50;99.90
11540;DHT22;5826;54.756;9.192;2024-03-08T09:00:13;5.60;99.90
11540;DHT22;5826;54.756;9.192;2024-03-08T09:02:41;5.60;99.90
11540;DHT22;5826;54.756;9.192;2024-03-08T09:05:07;5.90;99.90
11540;DHT22;5826;54.756;9.192;2024-03-08T09:07:33;5.70;99.90
11540;DHT22;5826;54.756;9.192;2024-03-08T09:09:59;5.70;99.90
11540;DHT22;5826;54.756;9.192;2024-03-08T09:12:25;5.80;99.90
11540;DHT22;5826;54.756;9.192;2024-03-08T09:14:50;6.00;99.90
11540;DHT22;5826;54.756;9.192;2024-03-08T09:17:16;6.00;99.90
11540;DHT22;5826;54.756;9.192;2024-03-08T09:19:49;6.10;99.90
11540;DHT22;5826;54.756;9.192;2024-03-08T09:22:15;6.10;99.90
11540;DHT22;5826;54.756;9.192;2024-03-08T09:24:40;6.10;99.90
11540;DHT22;5826;54.756;9.192;2024-03-08T09:27:07;6.10;99.90
11540;DHT22;5826;54.756;9.192;2024-03-08T09:29:34;6.20;99.90
11540;DHT22;5826;54.756;9.192;2024-03-08T09:32:00;6.20;99.90
11540;DHT22;5826;54.756;9.192;2024-03-08T09:34:26;6.20;99.90
11540;DHT22;5826;54.756;9.192;2024-03-08T09:36:52;6.30;99.90
11540;DHT22;5826;54.756;9.192;2024-03-08T09:39:18;6.50;99.90
11540;DHT22;5826;54.756;9.192;2024-03-08T09:41:46;6.60;99.90
11540;DHT22;5826;54.756;9.192;2024-03-08T09:44:13;6.80;99.90
11540;DHT22;5826;54.756;9.192;2024-03-08T09:46:39;6.90;99.90
11540;DHT22;5826;54.756;9.192;2024-03-08T09:49:06;6.90;99.90
11540;DHT22;5826;54.756;9.192;2024-03-08T09:51:33;7.00;99.90
11540;DHT22;5826;54.756;9.192;2024-03-08T09:54:00;7.10;99.90
11540;DHT22;5826;54.756;9.192;2024-03-08T09:56:27;7.10;99.90
11540;DHT22;5826;54.756;9.192;2024-03-08T09:58:53;7.20;99.90
11540;DHT22;5826;54.756;9.192;2024-03-08T10:01:31;7.30;99.90
11540;DHT22;5826;54.756;9.192;2024-03-08T10:03:57;7.40;99.90
11540;DHT22;5826;54.756;9.192;2024-03-08T10:06:23;7.50;99.90
11540;DHT22;5826;54.756;9.192;2024-03-08T10:08:49;7.60;99.90
11540;DHT22;5826;54.756;9.192;2024-03-08T10:11:17;7.70;99.90
11540;DHT22;5826;54.756;9.192;2024-03-08T10:13:44;7.70;99.90
11540;DHT22;5826;54.756;9.192;2024-03-08T10:16:11;7.80;99.90
11540;DHT22;5826;54.756;9.192;2024-03-08T10:18:37;7.90;99.90
11540;DHT22;5826;54.756;9.192;2024-03-08T10:21:04;8.00;99.90
11540;DHT22;5826;54.756;9.192;2024-03-08T10:23:30;8.00;99.90
11540;DHT22;5826;54.756;9.192;2024-03-08T10:25:56;7.90;99.90
11540;DHT22;5826;54.756;9.192;2024-03-08T10:28:23;8.00;99.90
11540;DHT22;5826;54.756;9.192;2024-03-08T10:30:50;8.10;99.90
11540;DHT22;5826;54.756;9.192;2024-03-08T10:33:15;8.20;99.90
11540;DHT22;5826;54.756;9.192;2024-03-08T10:35:41;8.30;99.90
11540;DHT22;5826;54.756;9.192;2024-03-08T10:38:08;8.30;99.90
11540;DHT22;5826;54.756;9.192;2024-03-08T10:40:39;8.40;99.90
11540;DHT22;5826;54.756;9.192;2024-03-08T10:43:12;8.50;99.90
11540;DHT22;5826;54.756;9.192;2024-03-08T10:45:43;8.60;99.90
11540;DHT22;5826;54.756;9.192;2024-03-08T10:48:26;8.70;99.90
11540;DHT22;5826;54.756;9.192;2024-03-08T10:50:53;8.80;99.90
11540;DHT22;5826;54.756;9.192;2024-03-08T10:53:19;8.80;99.90
11540;DHT22;5826;54.756;9.192;2024-03-08T10:55:46;8.90;99.90
11540;DHT22;5826;54.756;9.192;2024-03-08T10:58:12;8.90;99.90
11540;DHT22;5826;54.756;9.192;2024-03-08T11:00:38;8.90;99.90
11540;DHT22;5826;54.756;9.192;2024-03-08T11:03:04;8.90;99.90
11540;DHT22;5826;54.756;9.192;2024-03-08T11:05:40;8.80;99.40
11540;DHT22;5826;54.756;9.192;2024-03-08T11:10:47;8.90;99.90
11540;DHT22;5826;54.756;9.192;2024-03-08T11:13:52;9.00;99.90
11540;DHT22;5826;54.756;9.192;2024-03-08T11:21:36;9.30;99.50
11540;DHT22;5826;54.756;9.192;2024-03-08T11:24:14;9.40;99.30
11540;DHT22;5826;54.756;9.192;2024-03-08T11:26:41;9.50;99.20
11540;DHT22;5826;54.756;9.192;2024-03-08T11:29:33;9.60;98.80
11540;DHT22;5826;54.756;9.192;2024-03-08T11:32:17;9.60;98.30
11540;DHT22;5826;54.756;9.192;2024-03-08T11:34:46;9.60;98.60
11540;DHT22;5826;54.756;9.192;2024-03-08T11:37:17;9.60;98.50
11540;DHT22;5826;54.756;9.192;2024-03-08T11:39:51;9.60;98.80
11540;DHT22;5826;54.756;9.192;2024-03-08T11:42:18;9.70;99.30
11540;DHT22;5826;54.756;9.192;2024-03-08T11:44:45;9.90;99.00
11540;DHT22;5826;54.756;9.192;2024-03-08T11:47:12;10.00;98.30
11540;DHT22;5826;54.756;9.192;2024-03-08T11:49:38;10.30;98.40
11540;DHT22;5826;54.756;9.192;2024-03-08T11:52:05;10.10;98.50
11540;DHT22;5826;54.756;9.192;2024-03-08T11:54:31;10.10;98.40
11540;DHT22;5826;54.756;9.192;2024-03-08T11:56:57;10.00;98.00
11540;DHT22;5826;54.756;9.192;2024-03-08T11:59:27;10.10;98.10
11540;DHT22;5826;54.756;9.192;2024-03-08T12:02:01;10.20;98.20
11540;DHT22;5826;54.756;9.192;2024-03-08T12:04:28;10.30;98.30
11540;DHT22;5826;54.756;9.192;2024-03-08T12:06:54;10.40;97.80
11540;DHT22;5826;54.756;9.192;2024-03-08T12:09:19;10.50;97.30
11540;DHT22;5826;54.756;9.192;2024-03-08T12:11:48;10.70;98.10
11540;DHT22;5826;54.756;9.192;2024-03-08T12:14:14;10.70;96.90
11540;DHT22;5826;54.756;9.192;2024-03-08T12:16:40;10.80;97.00
11540;DHT22;5826;54.756;9.192;2024-03-08T12:19:07;10.80;96.70
11540;DHT22;5826;54.756;9.192;2024-03-08T12:21:35;10.70;96.90
11540;DHT22;5826;54.756;9.192;2024-03-08T12:24:10;10.60;97.40
11540;DHT22;5826;54.756;9.192;2024-03-08T12:26:37;10.60;97.80
11540;DHT22;5826;54.756;9.192;2024-03-08T12:29:30;10.70;97.40
11540;DHT22;5826;54.756;9.192;2024-03-08T12:31:59;10.90;97.10
11540;DHT22;5826;54.756;9.192;2024-03-08T12:34:26;11.00;96.60
11540;DHT22;5826;54.756;9.192;2024-03-08T12:36:53;11.10;96.00
11540;DHT22;5826;54.756;9.192;2024-03-08T12:39:21;11.20;96.70
11540;DHT22;5826;54.756;9.192;2024-03-08T12:41:51;11.30;96.30
11540;DHT22;5826;54.756;9.192;2024-03-08T12:44:22;11.40;95.30
11540;DHT22;5826;54.756;9.192;2024-03-08T12:46:48;11.50;95.10
11540;DHT22;5826;54.756;9.192;2024-03-08T12:49:14;11.70;94.10
11540;DHT22;5826;54.756;9.192;2024-03-08T12:51:44;11.90;93.90
11540;DHT22;5826;54.756;9.192;2024-03-08T12:54:09;12.00;93.70
11540;DHT22;5826;54.756;9.192;2024-03-08T12:56:35;12.10;94.10
11540;DHT22;5826;54.756;9.192;2024-03-08T12:59:03;12.20;94.10
11540;DHT22;5826;54.756;9.192;2024-03-08T13:01:30;12.20;93.90
11540;DHT22;5826;54.756;9.192;2024-03-08T13:03:57;12.20;93.80
11540;DHT22;5826;54.756;9.192;2024-03-08T13:06:24;12.30;93.20
11540;DHT22;5826;54.756;9.192;2024-03-08T13:08:50;12.10;93.50
11540;DHT22;5826;54.756;9.192;2024-03-08T13:11:17;12.20;93.90
11540;DHT22;5826;54.756;9.192;2024-03-08T13:13:44;12.50;92.90
11540;DHT22;5826;54.756;9.192;2024-03-08T13:16:10;12.80;92.20
11540;DHT22;5826;54.756;9.192;2024-03-08T13:18:36;13.00;91.90
11540;DHT22;5826;54.756;9.192;2024-03-08T13:21:02;13.10;92.40
11540;DHT22;5826;54.756;9.192;2024-03-08T13:23:35;13.30;91.60
11540;DHT22;5826;54.756;9.192;2024-03-08T13:26:11;13.50;91.70
11540;DHT22;5826;54.756;9.192;2024-03-08T13:28:47;13.90;89.90
11540;DHT22;5826;54.756;9.192;2024-03-08T13:31:14;14.40;89.80
11540;DHT22;5826;54.756;9.192;2024-03-08T13:33:40;14.90;89.50
11540;DHT22;5826;54.756;9.192;2024-03-08T13:36:10;15.50;86.60
11540;DHT22;5826;54.756;9.192;2024-03-08T13:38:46;16.70;81.90
11540;DHT22;5826;54.756;9.192;2024-03-08T13:41:13;18.50;63.70
11540;DHT22;5826;54.756;9.192;2024-03-08T13:43:41;20.20;57.80
11540;DHT22;5826;54.756;9.192;2024-03-08T13:46:06;21.60;53.80
11540;DHT22;5826;54.756;9.192;2024-03-08T13:48:35;21.90;50.90
11540;DHT22;5826;54.756;9.192;2024-03-08T13:51:03;22.20;56.60
11540;DHT22;5826;54.756;9.192;2024-03-08T13:53:30;22.40;54.10
11540;DHT22;5826;54.756;9.192;2024-03-08T13:55:55;22.00;63.50
11540;DHT22;5826;54.756;9.192;2024-03-08T13:58:22;21.70;69.60
11540;DHT22;5826;54.756;9.192;2024-03-08T14:00:47;20.70;79.50
11540;DHT22;5826;54.756;9.192;2024-03-08T14:03:13;20.20;82.90
11540;DHT22;5826;54.756;9.192;2024-03-08T14:05:39;20.00;82.30
11540;DHT22;5826;54.756;9.192;2024-03-08T14:08:08;19.90;88.20
11540;DHT22;5826;54.756;9.192;2024-03-08T14:10:35;20.10;84.70
11540;DHT22;5826;54.756;9.192;2024-03-08T14:13:02;20.50;91.40
11540;DHT22;5826;54.756;9.192;2024-03-08T14:15:30;21.10;92.90
11540;DHT22;5826;54.756;9.192;2024-03-08T14:17:56;22.00;78.40
11540;DHT22;5826;54.756;9.192;2024-03-08T14:20:23;23.30;69.70
11540;DHT22;5826;54.756;9.192;2024-03-08T14:22:51;25.00;66.70
11540;DHT22;5826;54.756;9.192;2024-03-08T14:25:17;27.60;47.80
11540;DHT22;5826;54.756;9.192;2024-03-08T14:27:44;28.20;44.80
11540;DHT22;5826;54.756;9.192;2024-03-08T14:30:11;29.20;45.60
11540;DHT22;5826;54.756;9.192;2024-03-08T14:32:36;30.10;37.00
11540;DHT22;5826;54.756;9.192;2024-03-08T14:35:07;30.80;38.70
11540;DHT22;5826;54.756;9.192;2024-03-08T14:37:33;31.40;36.60
11540;DHT22;5826;54.756;9.192;2024-03-08T14:39:58;31.50;40.10
11540;DHT22;5826;54.756;9.192;2024-03-08T14:42:24;31.20;37.80
11540;DHT22;5826;54.756;9.192;2024-03-08T14:44:51;31.30;36.50
11540;DHT22;5826;54.756;9.192;2024-03-08T14:47:19;31.50;36.90
11540;DHT22;5826;54.756;9.192;2024-03-08T14:49:44;31.90;39.00
11540;DHT22;5826;54.756;9.192;2024-03-08T14:52:10;32.50;36.60
11540;DHT22;5826;54.756;9.192;2024-03-08T14:54:53;32.90;37.10
11540;DHT22;5826;54.756;9.192;2024-03-08T14:57:19;33.00;38.70
11540;DHT22;5826;54.756;9.192;2024-03-08T14:59:44;33.00;34.90
11540;DHT22;5826;54.756;9.192;2024-03-08T15:02:10;32.90;36.30
11540;DHT22;5826;54.756;9.192;2024-03-08T15:04:36;32.60;41.90
11540;DHT22;5826;54.756;9.192;2024-03-08T15:07:02;32.20;43.30
11540;DHT22;5826;54.756;9.192;2024-03-08T15:09:30;32.00;43.40
11540;DHT22;5826;54.756;9.192;2024-03-08T15:12:06;31.80;44.80
11540;DHT22;5826;54.756;9.192;2024-03-08T15:14:31;31.70;42.90
11540;DHT22;5826;54.756;9.192;2024-03-08T15:16:58;31.80;46.00
11540;DHT22;5826;54.756;9.192;2024-03-08T15:19:24;31.30;47.00
11540;DHT22;5826;54.756;9.192;2024-03-08T15:21:50;30.20;52.20
11540;DHT22;5826;54.756;9.192;2024-03-08T15:24:20;28.80;57.50
11540;DHT22;5826;54.756;9.192;2024-03-08T15:26:47;28.30;59.10
11540;DHT22;5826;54.756;9.192;2024-03-08T15:29:16;28.00;58.90
11540;DHT22;5826;54.756;9.192;2024-03-08T15:31:48;27.00;65.50
11540;DHT22;5826;54.756;9.192;2024-03-08T15:34:17;27.40;57.40
11540;DHT22;5826;54.756;9.192;2024-03-08T15:36:43;27.70;53.70
11540;DHT22;5826;54.756;9.192;2024-03-08T15:39:11;28.10;55.20
11540;DHT22;5826;54.756;9.192;2024-03-08T15:41:36;28.30;45.60
11540;DHT22;5826;54.756;9.192;2024-03-08T15:44:02;28.50;55.20
11540;DHT22;5826;54.756;9.192;2024-03-08T15:46:27;28.90;53.70
11540;DHT22;5826;54.756;9.192;2024-03-08T15:48:53;28.70;53.30
11540;DHT22;5826;54.756;9.192;2024-03-08T15:51:19;28.50;50.80
11540;DHT22;5826;54.756;9.192;2024-03-08T15:53:44;28.40;50.10
11540;DHT22;5826;54.756;9.192;2024-03-08T15:56:18;28.40;54.70
11540;DHT22;5826;54.756;9.192;2024-03-08T15:58:43;28.00;51.90
11540;DHT22;5826;54.756;9.192;2024-03-08T16:01:09;27.80;54.20
11540;DHT22;5826;54.756;9.192;2024-03-08T16:03:36;27.60;56.60